Time;durP1;ratioP1;P1;durP2;ratioP2;P2;SDS_P1;SDS_P2;PMS_P1;PMS_P2;Temp;Humidity;BMP_temperature;BMP_pressure;BME280_temperature;BME280_humidity;BME280_pressure;Samples;Min_cycle;Max_cycle;Signal;HPM_P1;HPM_P2
2022/07/28 00:00:07;;;;;;;10.18;8.18;;;;;;;;;;5060924;28;20036;-82
2022/07/28 00:02:32;;;;;;;8.73;7.65;;;;;;;;;;5061513;28;20064;-83
2022/07/28 00:04:58;;;;;;;8.90;6.68;;;;;;;;;;5063803;28;20032;-85
2022/07/28 00:07:23;;;;;;;8.95;7.78;;;;;;;;;;5059009;28;20052;-83
2022/07/28 00:09:49;;;;;;;10.50;7.60;;;;;;;;;;5061343;28;20519;-83
2022/07/28 00:12:15;;;;;;;8.38;7.50;;;;;;;;;;5054892;28;20083;-81
2022/07/28 00:14:40;;;;;;;11.43;8.52;;;;;;;;;;5061949;28;20024;-81
2022/07/28 00:17:06;;;;;;;13.00;9.70;;;;;;;;;;5055224;28;20028;-81
2022/07/28 00:19:32;;;;;;;11.25;9.38;;;;;;;;;;5059711;28;20029;-82
2022/07/28 00:21:57;;;;;;;13.82;9.10;;;;;;;;;;5072327;28;20043;-82
2022/07/28 00:24:23;;;;;;;11.98;8.90;;;;;;;;;;5054186;28;20030;-83
2022/07/28 00:26:49;;;;;;;9.77;7.60;;;;;;;;;;5051983;28;20055;-83
2022/07/28 00:29:14;;;;;;;9.35;7.72;;;;;;;;;;5060919;28;20044;-82
2022/07/28 00:31:40;;;;;;;11.45;8.50;;;;;;;;;;5059503;28;20025;-83
2022/07/28 00:34:05;;;;;;;12.15;8.27;;;;;;;;;;5052298;28;20452;-82
2022/07/28 00:36:31;;;;;;;11.55;9.38;;;;;;;;;;5052528;28;20520;-85
2022/07/28 00:38:56;;;;;;;14.90;9.02;;;;;;;;;;5062538;28;20025;-82
2022/07/28 00:41:22;;;;;;;12.40;9.60;;;;;;;;;;5055395;28;20114;-83
2022/07/28 00:43:49;;;;;;;14.25;11.40;;;;;;;;;;5057096;28;20016;-84
2022/07/28 00:46:17;;;;;;;12.90;11.23;;;;;;;;;;5055109;28;20020;-85
2022/07/28 00:48:44;;;;;;;16.25;10.18;;;;;;;;;;5055385;28;20024;-84
2022/07/28 00:51:10;;;;;;;12.10;9.02;;;;;;;;;;5060234;28;20033;-84
2022/07/28 00:53:37;;;;;;;10.65;9.45;;;;;;;;;;5055264;28;20100;-83
2022/07/28 00:56:03;;;;;;;11.95;8.88;;;;;;;;;;5056433;28;20035;-83
2022/07/28 00:58:29;;;;;;;10.23;8.80;;;;;;;;;;5055817;28;20111;-83
2022/07/28 01:00:55;;;;;;;11.07;8.68;;;;;;;;;;5060994;28;20028;-83
2022/07/28 01:03:21;;;;;;;11.38;8.48;;;;;;;;;;5067924;28;20069;-84
2022/07/28 01:05:55;;;;;;;10.10;8.63;;;;;;;;;;5077576;28;20357;-82
2022/07/28 01:08:32;;;;;;;14.55;10.40;;;;;;;;;;5054944;28;20040;-82
2022/07/28 01:11:17;;;;;;;12.95;9.65;;;;;;;;;;5059658;28;20036;-82
2022/07/28 01:13:58;;;;;;;11.07;9.00;;;;;;;;;;5057330;28;20111;-83
2022/07/28 01:16:24;;;;;;;12.27;10.23;;;;;;;;;;5062541;28;20025;-82
2022/07/28 01:19:20;;;;;;;14.27;10.45;;;;;;;;;;5053682;28;20047;-82
2022/07/28 01:21:47;;;;;;;12.55;10.10;;;;;;;;;;5054533;28;20033;-82
2022/07/28 01:24:24;;;;;;;15.25;11.25;;;;;;;;;;5058231;28;20427;-82
2022/07/28 01:27:22;;;;;;;11.90;10.07;;;;;;;;;;5053508;28;20048;-82
2022/07/28 01:30:14;;;;;;;13.25;9.98;;;;;;;;;;5055297;28;20532;-81
2022/07/28 01:32:49;;;;;;;11.18;9.80;;;;;;;;;;5059700;28;20029;-82
2022/07/28 01:35:21;;;;;;;11.50;9.40;;;;;;;;;;5058709;28;20429;-82
2022/07/28 01:37:51;;;;;;;13.05;9.80;;;;;;;;;;5071986;28;20068;-82
2022/07/28 01:40:21;;;;;;;11.75;10.45;;;;;;;;;;5060296;28;20037;-81
2022/07/28 01:42:50;;;;;;;13.52;10.07;;;;;;;;;;5052478;28;20032;-81
2022/07/28 01:45:17;;;;;;;10.32;9.23;;;;;;;;;;5059411;28;20055;-81
2022/07/28 01:47:44;;;;;;;11.30;9.70;;;;;;;;;;5054785;28;20526;-81
2022/07/28 01:50:12;;;;;;;11.20;9.10;;;;;;;;;;5059024;28;20461;-81
2022/07/28 01:52:40;;;;;;;9.95;8.73;;;;;;;;;;5053485;28;20029;-81
2022/07/28 01:55:07;;;;;;;11.02;9.48;;;;;;;;;;5049190;28;20119;-81
2022/07/28 01:57:34;;;;;;;12.40;9.93;;;;;;;;;;5056374;28;20028;-81
2022/07/28 02:00:01;;;;;;;12.20;10.63;;;;;;;;;;5076068;28;20029;-81
2022/07/28 02:02:29;;;;;;;10.95;8.63;;;;;;;;;;5065557;28;20531;-81
2022/07/28 02:04:57;;;;;;;11.20;9.65;;;;;;;;;;5070962;28;20473;-81
2022/07/28 02:07:25;;;;;;;13.60;10.35;;;;;;;;;;5063827;28;20100;-80
2022/07/28 02:09:52;;;;;;;10.90;9.50;;;;;;;;;;5061357;28;20033;-80
2022/07/28 02:12:18;;;;;;;10.10;8.82;;;;;;;;;;5059774;28;20032;-81
2022/07/28 02:14:48;;;;;;;9.60;8.23;;;;;;;;;;5066215;28;20071;-81
2022/07/28 02:17:19;;;;;;;11.07;8.80;;;;;;;;;;5057599;28;20490;-81
2022/07/28 02:19:46;;;;;;;10.70;8.80;;;;;;;;;;5051631;28;20524;-81
2022/07/28 02:22:12;;;;;;;10.57;8.95;;;;;;;;;;5051763;28;20385;-81
2022/07/28 02:24:40;;;;;;;9.82;8.18;;;;;;;;;;5070937;28;20029;-81
2022/07/28 02:27:32;;;;;;;8.85;7.93;;;;;;;;;;5052875;28;20121;-81
2022/07/28 02:30:08;;;;;;;10.60;8.90;;;;;;;;;;5058137;28;20032;-80
2022/07/28 02:32:46;;;;;;;10.43;8.50;;;;;;;;;;5054076;28;20538;-80
2022/07/28 02:35:30;;;;;;;10.27;7.97;;;;;;;;;;5058700;28;20024;-80
2022/07/28 02:38:01;;;;;;;9.45;8.45;;;;;;;;;;5048108;28;20041;-80
2022/07/28 02:40:34;;;;;;;9.57;8.57;;;;;;;;;;5049349;28;20372;-81
2022/07/28 02:43:01;;;;;;;11.10;9.13;;;;;;;;;;5045695;28;20111;-81
2022/07/28 02:45:28;;;;;;;10.35;8.68;;;;;;;;;;5048020;28;20029;-81
2022/07/28 02:48:02;;;;;;;11.10;8.20;;;;;;;;;;5050483;28;20040;-80
2022/07/28 02:50:28;;;;;;;11.60;8.50;;;;;;;;;;5067054;28;20064;-81
2022/07/28 02:52:57;;;;;;;11.05;8.98;;;;;;;;;;5053554;28;20500;-80
2022/07/28 02:55:23;;;;;;;10.43;8.85;;;;;;;;;;5056429;28;20094;-81
2022/07/28 02:57:49;;;;;;;10.50;8.73;;;;;;;;;;5054100;28;20036;-80
2022/07/28 03:00:15;;;;;;;11.65;8.70;;;;;;;;;;5052076;28;20621;-81
2022/07/28 03:02:45;;;;;;;10.57;9.45;;;;;;;;;;5052436;28;20045;-82
2022/07/28 03:05:13;;;;;;;9.50;8.40;;;;;;;;;;5054151;28;20040;-80
2022/07/28 03:07:38;;;;;;;14.05;9.00;;;;;;;;;;5051901;28;20039;-81
2022/07/28 03:10:04;;;;;;;10.43;8.73;;;;;;;;;;5062390;28;20028;-81
2022/07/28 03:12:29;;;;;;;10.55;9.45;;;;;;;;;;5058756;28;20028;-81
2022/07/28 03:14:55;;;;;;;11.13;9.43;;;;;;;;;;5067257;28;20095;-82
2022/07/28 03:17:21;;;;;;;10.68;8.75;;;;;;;;;;5062218;28;20099;-80
2022/07/28 03:19:46;;;;;;;11.15;9.85;;;;;;;;;;5067444;28;20028;-80
2022/07/28 03:22:12;;;;;;;11.55;9.00;;;;;;;;;;5059408;28;20132;-81
2022/07/28 03:24:43;;;;;;;11.32;9.15;;;;;;;;;;5061247;28;20024;-82
2022/07/28 03:27:17;;;;;;;12.70;9.35;;;;;;;;;;5057495;28;20085;-81
2022/07/28 03:29:48;;;;;;;10.60;9.50;;;;;;;;;;5058985;28;20039;-81
2022/07/28 03:32:17;;;;;;;12.95;10.05;;;;;;;;;;5069912;28;20036;-82
2022/07/28 03:34:42;;;;;;;10.35;8.77;;;;;;;;;;5055648;28;20025;-80
2022/07/28 03:37:11;;;;;;;13.63;8.73;;;;;;;;;;5061627;28;20039;-79
2022/07/28 03:39:46;;;;;;;10.50;9.13;;;;;;;;;;5053280;28;20104;-81
2022/07/28 03:42:15;;;;;;;11.05;8.57;;;;;;;;;;5061003;28;20086;-82
2022/07/28 03:44:41;;;;;;;11.00;8.32;;;;;;;;;;5053038;28;20575;-81
2022/07/28 03:47:06;;;;;;;10.98;8.63;;;;;;;;;;5062598;28;20033;-80
2022/07/28 03:49:32;;;;;;;10.57;8.55;;;;;;;;;;5073980;28;20036;-81
2022/07/28 03:51:57;;;;;;;9.57;8.30;;;;;;;;;;5058687;28;20473;-80
2022/07/28 03:54:23;;;;;;;10.00;8.57;;;;;;;;;;5055660;28;20096;-82
2022/07/28 03:56:49;;;;;;;10.07;8.45;;;;;;;;;;5078929;28;20036;-81
2022/07/28 03:59:14;;;;;;;9.95;8.02;;;;;;;;;;5066197;28;20032;-81
2022/07/28 04:01:44;;;;;;;11.40;8.32;;;;;;;;;;5065234;28;20040;-80
2022/07/28 04:04:09;;;;;;;8.73;7.70;;;;;;;;;;5079065;28;20028;-80
2022/07/28 04:06:35;;;;;;;9.93;8.75;;;;;;;;;;5077675;28;20079;-81
2022/07/28 04:09:00;;;;;;;10.38;8.25;;;;;;;;;;5061801;28;20056;-80
2022/07/28 04:11:26;;;;;;;9.45;8.07;;;;;;;;;;5057817;28;20033;-80
2022/07/28 04:13:51;;;;;;;7.90;7.07;;;;;;;;;;5059361;28;20029;-80
2022/07/28 04:16:17;;;;;;;7.38;6.00;;;;;;;;;;5063237;28;20021;-79
2022/07/28 04:18:43;;;;;;;4.95;4.30;;;;;;;;;;5051237;28;20043;-79
2022/07/28 04:21:08;;;;;;;8.55;5.00;;;;;;;;;;5063572;28;20518;-79
2022/07/28 04:23:33;;;;;;;6.57;5.63;;;;;;;;;;5061594;28;20073;-83
2022/07/28 04:25:59;;;;;;;5.30;4.47;;;;;;;;;;5052925;28;20479;-79
2022/07/28 04:28:24;;;;;;;4.75;4.20;;;;;;;;;;5057587;28;20030;-82
2022/07/28 04:30:50;;;;;;;10.52;8.25;;;;;;;;;;5063153;28;20056;-82
2022/07/28 04:33:18;;;;;;;11.27;10.13;;;;;;;;;;5063591;28;20056;-80
2022/07/28 04:35:43;;;;;;;16.08;13.32;;;;;;;;;;5053510;28;20055;-82
2022/07/28 04:38:12;;;;;;;19.17;17.05;;;;;;;;;;5061777;28;20056;-86
2022/07/28 04:40:38;;;;;;;22.95;18.85;;;;;;;;;;5060589;28;20542;-84
2022/07/28 04:43:03;;;;;;;21.55;18.17;;;;;;;;;;5052259;28;20029;-79
2022/07/28 04:45:29;;;;;;;23.25;18.40;;;;;;;;;;5064546;28;20028;-81
2022/07/28 04:47:54;;;;;;;25.70;17.05;;;;;;;;;;5061208;28;20036;-82
2022/07/28 04:50:20;;;;;;;25.85;17.15;;;;;;;;;;5051647;28;20152;-81
2022/07/28 04:52:49;;;;;;;21.85;16.90;;;;;;;;;;5063541;28;20031;-81
2022/07/28 04:55:15;;;;;;;22.75;14.43;;;;;;;;;;5056842;28;20032;-84
2022/07/28 04:57:42;;;;;;;15.45;13.10;;;;;;;;;;5065122;28;20114;-82
2022/07/28 05:00:11;;;;;;;18.52;12.38;;;;;;;;;;5072256;28;20476;-84
2022/07/28 05:02:37;;;;;;;;;;;;;;;;;;5057767;28;20044;-85
2022/07/28 05:05:02;;;;;;;16.88;12.95;;;;;;;;;;5059131;28;20381;-84
2022/07/28 05:07:28;;;;;;;20.38;14.68;;;;;;;;;;5062665;28;20031;-85
2022/07/28 05:09:53;;;;;;;19.00;12.82;;;;;;;;;;5057467;28;20021;-85
2022/07/28 05:12:19;;;;;;;17.90;13.90;;;;;;;;;;5058450;28;20079;-83
2022/07/28 05:14:44;;;;;;;15.70;12.43;;;;;;;;;;5057780;28;20021;-84
2022/07/28 05:17:10;;;;;;;13.30;11.65;;;;;;;;;;5057410;28;20028;-83
2022/07/28 05:19:35;;;;;;;16.60;12.45;;;;;;;;;;5059894;28;20487;-84
2022/07/28 05:22:00;;;;;;;14.95;12.52;;;;;;;;;;5058448;28;20094;-84
2022/07/28 05:24:26;;;;;;;19.60;13.88;;;;;;;;;;5059546;28;20056;-86
2022/07/28 05:26:51;;;;;;;15.30;12.55;;;;;;;;;;5062324;28;20100;-84
2022/07/28 05:29:17;;;;;;;15.25;13.38;;;;;;;;;;5058946;28;20033;-84
2022/07/28 05:31:42;;;;;;;15.00;12.63;;;;;;;;;;5056673;28;20025;-85
2022/07/28 05:34:07;;;;;;;14.93;12.75;;;;;;;;;;5055701;28;20031;-86
2022/07/28 05:36:34;;;;;;;16.13;12.15;;;;;;;;;;5054771;28;20467;-84
2022/07/28 05:39:00;;;;;;;17.15;13.18;;;;;;;;;;5053844;28;20024;-83
2022/07/28 05:41:25;;;;;;;17.27;14.15;;;;;;;;;;5055191;28;20492;-86
2022/07/28 05:43:51;;;;;;;16.08;13.40;;;;;;;;;;5055320;28;20036;-85
2022/07/28 05:46:16;;;;;;;14.23;11.68;;;;;;;;;;5058792;28;20021;-87
2022/07/28 05:48:41;;;;;;;14.90;11.93;;;;;;;;;;5052282;28;20033;-85
2022/07/28 05:51:07;;;;;;;13.70;11.13;;;;;;;;;;5052279;28;20040;-84
2022/07/28 05:53:32;;;;;;;13.75;11.68;;;;;;;;;;5056343;28;20357;-84
2022/07/28 05:55:58;;;;;;;13.07;11.27;;;;;;;;;;5061422;28;20392;-83
2022/07/28 05:58:23;;;;;;;16.23;12.48;;;;;;;;;;5071171;28;20025;-88
2022/07/28 06:00:49;;;;;;;13.43;10.75;;;;;;;;;;5054041;28;20035;-85
2022/07/28 06:03:15;;;;;;;13.65;11.55;;;;;;;;;;5056825;28;20052;-82
2022/07/28 06:05:41;;;;;;;14.82;10.98;;;;;;;;;;5052670;28;20020;-85
2022/07/28 06:08:08;;;;;;;12.77;11.38;;;;;;;;;;5046436;28;20053;-83
2022/07/28 06:13:18;;;;;;;12.30;10.93;;;;;;;;;;5061523;28;20046;-84
2022/07/28 06:15:47;;;;;;;11.80;10.18;;;;;;;;;;5073153;28;20017;-84
2022/07/28 06:18:12;;;;;;;13.10;10.52;;;;;;;;;;5051264;28;20024;-84
2022/07/28 06:20:38;;;;;;;14.60;11.10;;;;;;;;;;5056088;28;20032;-83
2022/07/28 06:23:04;;;;;;;14.65;11.40;;;;;;;;;;5059057;28;20025;-83
2022/07/28 06:25:30;;;;;;;15.50;11.38;;;;;;;;;;5053652;28;20020;-82
2022/07/28 06:28:01;;;;;;;12.10;10.50;;;;;;;;;;5051117;28;20388;-83
2022/07/28 06:30:27;;;;;;;12.40;10.65;;;;;;;;;;5056360;28;20429;-84
2022/07/28 06:32:53;;;;;;;13.70;11.48;;;;;;;;;;5054357;28;20055;-82
2022/07/28 06:35:19;;;;;;;11.32;10.13;;;;;;;;;;5050574;28;20029;-83
2022/07/28 06:37:46;;;;;;;12.45;10.68;;;;;;;;;;5043242;28;20033;-84
2022/07/28 06:40:12;;;;;;;10.95;9.73;;;;;;;;;;5047617;28;20176;-85
2022/07/28 06:42:39;;;;;;;11.77;10.57;;;;;;;;;;5049114;28;20040;-85
2022/07/28 06:45:05;;;;;;;11.73;10.52;;;;;;;;;;5049037;28;20025;-83
2022/07/28 06:47:31;;;;;;;12.80;9.90;;;;;;;;;;5077690;28;20136;-81
2022/07/28 06:49:56;;;;;;;11.55;10.35;;;;;;;;;;5058835;28;20104;-83
2022/07/28 06:52:22;;;;;;;11.35;10.20;;;;;;;;;;5064365;28;20029;-82
2022/07/28 06:54:51;;;;;;;11.50;10.05;;;;;;;;;;5052541;28;20029;-83
2022/07/28 06:57:17;;;;;;;;;;;;;;;;;;5048900;28;20056;-82
2022/07/28 06:59:43;;;;;;;11.02;9.93;;;;;;;;;;5063587;28;19925;-82
2022/07/28 07:02:08;;;;;;;12.25;9.80;;;;;;;;;;5065414;28;20071;-82
2022/07/28 07:04:34;;;;;;;10.88;9.77;;;;;;;;;;5062325;28;20029;-82
2022/07/28 07:06:59;;;;;;;11.73;10.38;;;;;;;;;;5067406;28;20016;-82
2022/07/28 07:09:25;;;;;;;11.32;10.02;;;;;;;;;;5059868;28;20039;-83
2022/07/28 07:11:51;;;;;;;13.32;10.20;;;;;;;;;;5057475;28;20372;-82
2022/07/28 07:14:16;;;;;;;12.80;11.27;;;;;;;;;;5059399;28;20418;-83
2022/07/28 07:16:42;;;;;;;11.93;10.32;;;;;;;;;;5056604;28;20032;-83
2022/07/28 07:19:07;;;;;;;13.35;11.30;;;;;;;;;;5057477;28;20396;-83
2022/07/28 07:21:32;;;;;;;13.18;10.98;;;;;;;;;;5053596;28;20033;-82
2022/07/28 07:23:58;;;;;;;12.82;10.90;;;;;;;;;;5057092;28;20100;-82
2022/07/28 07:26:24;;;;;;;13.00;11.10;;;;;;;;;;5058303;28;20024;-82
2022/07/28 07:28:49;;;;;;;12.50;11.15;;;;;;;;;;5058703;28;20107;-82
2022/07/28 07:31:15;;;;;;;12.30;11.00;;;;;;;;;;5064297;28;20032;-81
2022/07/28 07:33:40;;;;;;;12.93;11.23;;;;;;;;;;5051105;28;20469;-80
2022/07/28 07:36:06;;;;;;;17.05;10.85;;;;;;;;;;5060414;28;20430;-81
2022/07/28 07:38:31;;;;;;;13.02;11.40;;;;;;;;;;5052463;28;20469;-83
2022/07/28 07:40:57;;;;;;;14.85;11.70;;;;;;;;;;5054601;28;20518;-81
2022/07/28 07:43:23;;;;;;;15.55;11.63;;;;;;;;;;5055764;28;20021;-82
2022/07/28 07:45:48;;;;;;;15.73;13.15;;;;;;;;;;5054826;28;20025;-82
2022/07/28 07:48:14;;;;;;;14.48;11.40;;;;;;;;;;5057184;28;20056;-83
2022/07/28 07:50:39;;;;;;;14.25;11.52;;;;;;;;;;5060249;28;20393;-84
2022/07/28 07:53:05;;;;;;;13.77;11.13;;;;;;;;;;5059593;28;20028;-85
2022/07/28 07:55:30;;;;;;;13.63;12.23;;;;;;;;;;5062368;28;20108;-82
2022/07/28 07:57:56;;;;;;;13.25;11.82;;;;;;;;;;5052787;28;20465;-82
2022/07/28 08:00:22;;;;;;;17.20;11.82;;;;;;;;;;5058465;28;20109;-82
2022/07/28 08:02:47;;;;;;;13.82;11.90;;;;;;;;;;5055839;28;20086;-83
2022/07/28 08:05:13;;;;;;;13.68;11.65;;;;;;;;;;5057028;28;20037;-83
2022/07/28 08:07:38;;;;;;;13.95;12.52;;;;;;;;;;5075608;28;20024;-84
2022/07/28 08:10:05;;;;;;;15.73;12.63;;;;;;;;;;5058002;28;20025;-83
2022/07/28 08:12:30;;;;;;;14.95;11.93;;;;;;;;;;5054371;28;20037;-83
2022/07/28 08:14:56;;;;;;;15.23;12.00;;;;;;;;;;5057845;28;20090;-84
2022/07/28 08:17:22;;;;;;;14.57;12.00;;;;;;;;;;5044728;28;20530;-83
2022/07/28 08:19:54;;;;;;;15.50;12.07;;;;;;;;;;5057281;28;20034;-82
2022/07/28 08:22:20;;;;;;;14.98;11.85;;;;;;;;;;5060666;28;20559;-85
2022/07/28 08:24:48;;;;;;;12.77;11.35;;;;;;;;;;5064635;28;20047;-83
2022/07/28 08:27:14;;;;;;;17.20;12.52;;;;;;;;;;5061549;28;20074;-82
2022/07/28 08:29:39;;;;;;;13.32;11.90;;;;;;;;;;5058520;28;20399;-80
2022/07/28 08:32:05;;;;;;;14.30;12.60;;;;;;;;;;5055769;28;20663;-85
2022/07/28 08:34:32;;;;;;;13.05;11.73;;;;;;;;;;5050878;28;20021;-84
2022/07/28 08:36:58;;;;;;;14.20;12.80;;;;;;;;;;5060633;28;20107;-84
2022/07/28 08:39:23;;;;;;;13.82;11.93;;;;;;;;;;5061288;28;20503;-84
2022/07/28 08:42:05;;;;;;;13.93;12.35;;;;;;;;;;5066811;28;20032;-85
2022/07/28 08:44:45;;;;;;;18.50;13.55;;;;;;;;;;5054950;28;20528;-84
2022/07/28 08:47:12;;;;;;;14.30;12.80;;;;;;;;;;5054667;28;20035;-86
2022/07/28 08:49:41;;;;;;;16.50;12.55;;;;;;;;;;5058368;28;20501;-84
2022/07/28 08:52:11;;;;;;;14.43;12.95;;;;;;;;;;5060670;28;20032;-83
2022/07/28 08:54:41;;;;;;;13.43;12.02;;;;;;;;;;5057720;28;20025;-84
2022/07/28 08:57:12;;;;;;;15.02;12.75;;;;;;;;;;5061139;28;20057;-85
2022/07/28 08:59:38;;;;;;;17.98;13.63;;;;;;;;;;5058066;28;20476;-86
2022/07/28 09:02:03;;;;;;;14.55;13.05;;;;;;;;;;5057431;28;20048;-86
2022/07/28 09:04:32;;;;;;;18.08;13.93;;;;;;;;;;5063177;28;20025;-85
2022/07/28 09:06:58;;;;;;;16.52;13.95;;;;;;;;;;5060069;28;20035;-86
2022/07/28 09:09:24;;;;;;;17.73;13.77;;;;;;;;;;5062192;28;20056;-86
2022/07/28 09:11:50;;;;;;;15.88;12.98;;;;;;;;;;5064577;28;20035;-85
2022/07/28 09:14:15;;;;;;;16.05;13.60;;;;;;;;;;5062884;28;20028;-85
2022/07/28 09:16:41;;;;;;;16.17;13.85;;;;;;;;;;5071528;28;20028;-86
2022/07/28 09:19:06;;;;;;;21.02;14.75;;;;;;;;;;5059047;28;20507;-87
2022/07/28 09:21:32;;;;;;;24.15;14.93;;;;;;;;;;5079562;28;20115;-86
2022/07/28 09:23:59;;;;;;;20.08;15.23;;;;;;;;;;5063398;28;20108;-87
2022/07/28 09:26:24;;;;;;;15.40;12.48;;;;;;;;;;5064840;28;20028;-85
2022/07/28 09:28:55;;;;;;;24.15;14.13;;;;;;;;;;5057608;28;20036;-83
2022/07/28 09:31:23;;;;;;;15.75;13.15;;;;;;;;;;5067570;28;20036;-82
2022/07/28 09:33:57;;;;;;;17.73;13.68;;;;;;;;;;5044680;28;20049;-83
2022/07/28 09:36:23;;;;;;;15.73;13.68;;;;;;;;;;5050143;28;20086;-81
2022/07/28 09:38:48;;;;;;;13.40;12.05;;;;;;;;;;5055158;28;20029;-83
2022/07/28 09:41:17;;;;;;;13.02;11.23;;;;;;;;;;5052094;28;20070;-82
2022/07/28 09:43:44;;;;;;;18.73;12.98;;;;;;;;;;5051020;28;20039;-82
2022/07/28 09:46:17;;;;;;;16.33;12.40;;;;;;;;;;5051987;28;20061;-82
2022/07/28 09:48:48;;;;;;;15.90;12.27;;;;;;;;;;5050352;28;20033;-82
2022/07/28 09:51:20;;;;;;;16.38;12.73;;;;;;;;;;5056925;28;20054;-82
2022/07/28 09:53:45;;;;;;;17.35;13.50;;;;;;;;;;5065366;28;20028;-82
2022/07/28 09:56:12;;;;;;;18.55;12.40;;;;;;;;;;5060127;28;20032;-83
2022/07/28 09:58:38;;;;;;;12.52;11.02;;;;;;;;;;5057469;28;20025;-86
2022/07/28 10:01:09;;;;;;;14.60;11.55;;;;;;;;;;5055430;28;20036;-84
2022/07/28 10:03:42;;;;;;;11.57;10.38;;;;;;;;;;5059867;28;20050;-84
2022/07/28 10:06:13;;;;;;;17.15;11.95;;;;;;;;;;5055581;28;20055;-85
2022/07/28 10:08:42;;;;;;;12.75;11.45;;;;;;;;;;5062833;28;20025;-85
2022/07/28 10:11:09;;;;;;;12.97;11.20;;;;;;;;;;5054566;28;20103;-83
2022/07/28 10:13:35;;;;;;;15.55;12.05;;;;;;;;;;5055477;28;20037;-82
2022/07/28 10:16:10;;;;;;;13.48;11.50;;;;;;;;;;5058009;28;20027;-85
2022/07/28 10:18:38;;;;;;;15.20;12.00;;;;;;;;;;5047409;28;20033;-82
2022/07/28 10:21:07;;;;;;;15.50;11.95;;;;;;;;;;5056834;28;20035;-80
2022/07/28 10:23:35;;;;;;;15.57;12.18;;;;;;;;;;5072350;28;20112;-81
2022/07/28 10:26:04;;;;;;;13.37;12.00;;;;;;;;;;5056949;28;20033;-82
2022/07/28 10:28:33;;;;;;;16.52;11.00;;;;;;;;;;5054485;28;20029;-81
2022/07/28 10:31:01;;;;;;;12.57;10.67;;;;;;;;;;5064100;28;20033;-81
2022/07/28 10:33:31;;;;;;;12.65;10.90;;;;;;;;;;5057436;28;20025;-81
2022/07/28 10:35:58;;;;;;;13.18;11.52;;;;;;;;;;5057309;28;20456;-80
2022/07/28 10:38:33;;;;;;;14.05;12.20;;;;;;;;;;5058053;28;20032;-84
2022/07/28 10:41:01;;;;;;;14.40;11.25;;;;;;;;;;5053213;28;20104;-81
2022/07/28 10:43:29;;;;;;;16.38;12.20;;;;;;;;;;5061412;28;20031;-81
2022/07/28 10:45:55;;;;;;;13.50;11.38;;;;;;;;;;5054346;28;20559;-83
2022/07/28 10:48:21;;;;;;;13.43;12.02;;;;;;;;;;5058997;28;20033;-82
2022/07/28 10:50:47;;;;;;;15.55;12.32;;;;;;;;;;5060323;28;20538;-82
2022/07/28 10:53:39;;;;;;;14.77;12.93;;;;;;;;;;5068515;28;20036;-84
2022/07/28 10:56:16;;;;;;;14.75;13.15;;;;;;;;;;5061474;28;20021;-84
2022/07/28 10:59:05;;;;;;;14.65;12.10;;;;;;;;;;5048107;28;20412;-83
2022/07/28 11:01:35;;;;;;;14.35;11.93;;;;;;;;;;5061150;28;20045;-84
2022/07/28 11:04:00;;;;;;;13.80;12.13;;;;;;;;;;5055772;28;20033;-84
2022/07/28 11:06:34;;;;;;;12.55;11.25;;;;;;;;;;5063247;28;20043;-87
2022/07/28 11:09:21;;;;;;;14.43;11.65;;;;;;;;;;5063829;28;20028;-84
2022/07/28 11:11:49;;;;;;;12.98;11.48;;;;;;;;;;5057443;28;20025;-83
2022/07/28 11:14:24;;;;;;;13.32;12.00;;;;;;;;;;5058988;28;20077;-84
2022/07/28 11:17:10;;;;;;;14.20;12.63;;;;;;;;;;5055907;28;20017;-86
2022/07/28 11:19:56;;;;;;;14.73;12.52;;;;;;;;;;5052591;28;20033;-88
2022/07/28 11:22:29;;;;;;;14.77;11.90;;;;;;;;;;5052220;28;20033;-88
2022/07/28 11:25:06;;;;;;;12.57;11.10;;;;;;;;;;5060427;28;20469;-86
2022/07/28 11:27:40;;;;;;;15.57;11.80;;;;;;;;;;5059319;28;20037;-86
2022/07/28 11:30:10;;;;;;;13.70;11.55;;;;;;;;;;5064070;28;20027;-86
2022/07/28 11:32:53;;;;;;;12.35;11.13;;;;;;;;;;5056480;28;20032;-84
2022/07/28 11:35:24;;;;;;;13.60;11.50;;;;;;;;;;5056358;28;20480;-82
2022/07/28 11:38:01;;;;;;;12.65;11.07;;;;;;;;;;5056543;28;20025;-83
2022/07/28 11:40:43;;;;;;;15.18;10.68;;;;;;;;;;5056238;28;20407;-82
2022/07/28 11:43:25;;;;;;;10.45;9.30;;;;;;;;;;5054700;28;20074;-83
2022/07/28 11:46:07;;;;;;;13.63;10.18;;;;;;;;;;5051147;28;20114;-85
2022/07/28 11:48:33;;;;;;;10.50;9.32;;;;;;;;;;5053129;28;20480;-85
2022/07/28 11:51:02;;;;;;;10.70;9.60;;;;;;;;;;5063334;28;20037;-84
2022/07/28 11:53:54;;;;;;;11.53;9.47;;;;;;;;;;5051054;28;20091;-83
2022/07/28 11:56:36;;;;;;;11.57;8.82;;;;;;;;;;5050041;28;20021;-82
2022/07/28 11:59:06;;;;;;;9.95;8.95;;;;;;;;;;5055974;28;20029;-86
2022/07/28 12:01:33;;;;;;;10.85;9.07;;;;;;;;;;5050470;28;20059;-84
2022/07/28 12:04:00;;;;;;;11.68;9.18;;;;;;;;;;5040431;28;20025;-84
2022/07/28 12:06:34;;;;;;;10.48;9.20;;;;;;;;;;5040306;28;20472;-84
2022/07/28 12:09:06;;;;;;;12.48;9.13;;;;;;;;;;5049492;28;20028;-84
2022/07/28 12:11:39;;;;;;;9.55;8.43;;;;;;;;;;5049924;28;20033;-85
2022/07/28 12:14:14;;;;;;;10.60;9.60;;;;;;;;;;5045703;28;20543;-81
2022/07/28 12:16:42;;;;;;;9.27;8.38;;;;;;;;;;5053247;28;20017;-85
2022/07/28 12:19:09;;;;;;;9.77;8.88;;;;;;;;;;5049477;28;20028;-85
2022/07/28 12:21:35;;;;;;;15.10;9.48;;;;;;;;;;5053076;28;20021;-79
2022/07/28 12:24:00;;;;;;;10.48;9.48;;;;;;;;;;5052032;28;20029;-83
2022/07/28 12:26:30;;;;;;;9.90;8.90;;;;;;;;;;5059318;28;20029;-83
2022/07/28 12:28:56;;;;;;;14.05;10.38;;;;;;;;;;5058366;28;20057;-84
2022/07/28 12:31:28;;;;;;;10.88;9.77;;;;;;;;;;5056712;28;20059;-87
2022/07/28 12:33:54;;;;;;;10.27;9.23;;;;;;;;;;5059182;28;20476;-84
2022/07/28 12:36:22;;;;;;;11.25;10.20;;;;;;;;;;5052837;28;20067;-82
2022/07/28 12:38:50;;;;;;;12.00;10.27;;;;;;;;;;5054036;28;20566;-83
2022/07/28 12:41:16;;;;;;;11.50;10.40;;;;;;;;;;5048073;28;20029;-82
2022/07/28 12:43:49;;;;;;;11.25;10.05;;;;;;;;;;5060417;28;20048;-84
2022/07/28 12:46:22;;;;;;;12.05;10.85;;;;;;;;;;5059017;28;20032;-81
2022/07/28 12:48:48;;;;;;;11.32;10.23;;;;;;;;;;5060770;28;20032;-83
2022/07/28 12:51:31;;;;;;;10.57;9.55;;;;;;;;;;5083767;28;20033;-84
2022/07/28 12:53:57;;;;;;;15.07;9.90;;;;;;;;;;5049723;28;20030;-83
2022/07/28 12:56:22;;;;;;;11.90;9.80;;;;;;;;;;5054434;28;20025;-82
2022/07/28 12:58:53;;;;;;;10.98;9.52;;;;;;;;;;5052059;28;20031;-85
2022/07/28 13:01:19;;;;;;;10.82;9.13;;;;;;;;;;5053018;28;20037;-84
2022/07/28 13:03:45;;;;;;;10.88;9.68;;;;;;;;;;5059186;28;20029;-81
2022/07/28 13:06:13;;;;;;;11.15;9.90;;;;;;;;;;5056332;28;20033;-83
2022/07/28 13:08:45;;;;;;;12.10;10.15;;;;;;;;;;5055659;28;20020;-84
2022/07/28 13:11:13;;;;;;;11.02;9.32;;;;;;;;;;5053994;28;20374;-84
2022/07/28 13:13:51;;;;;;;11.35;9.82;;;;;;;;;;5058102;28;20028;-84
2022/07/28 13:16:19;;;;;;;10.00;8.75;;;;;;;;;;5054444;28;20033;-80
2022/07/28 13:18:48;;;;;;;10.27;9.27;;;;;;;;;;5051431;28;20427;-80
2022/07/28 13:21:15;;;;;;;10.55;9.32;;;;;;;;;;5057007;28;20423;-82
2022/07/28 13:23:41;;;;;;;10.38;9.45;;;;;;;;;;5066935;28;20381;-81
2022/07/28 13:26:06;;;;;;;10.18;9.18;;;;;;;;;;5049107;28;20022;-83
2022/07/28 13:28:32;;;;;;;14.35;9.90;;;;;;;;;;5057718;28;20354;-83
2022/07/28 13:30:57;;;;;;;13.80;8.82;;;;;;;;;;5055054;28;20029;-82
2022/07/28 13:33:25;;;;;;;12.43;8.82;;;;;;;;;;5052270;28;20552;-82
2022/07/28 13:35:51;;;;;;;9.07;8.18;;;;;;;;;;5055285;28;20376;-83
2022/07/28 13:38:17;;;;;;;8.45;7.55;;;;;;;;;;5056170;28;20036;-83
2022/07/28 13:40:42;;;;;;;10.35;8.32;;;;;;;;;;5048443;28;20032;-83
2022/07/28 13:43:07;;;;;;;8.77;7.97;;;;;;;;;;5058664;28;20056;-83
2022/07/28 13:45:34;;;;;;;9.07;7.82;;;;;;;;;;5049969;28;20078;-84
2022/07/28 13:48:01;;;;;;;8.50;7.60;;;;;;;;;;5050548;28;20031;-85
2022/07/28 13:50:27;;;;;;;7.35;6.68;;;;;;;;;;5073137;28;20028;-81
2022/07/28 13:52:52;;;;;;;8.60;7.18;;;;;;;;;;5076576;28;20063;-83
2022/07/28 13:55:18;;;;;;;8.00;7.22;;;;;;;;;;5048032;28;20488;-84
2022/07/28 13:57:43;;;;;;;8.75;7.57;;;;;;;;;;5059535;28;20114;-84
2022/07/28 14:00:09;;;;;;;7.85;7.15;;;;;;;;;;5047467;28;20396;-82
2022/07/28 14:02:34;;;;;;;9.30;7.95;;;;;;;;;;5047801;28;20041;-81
2022/07/28 14:05:00;;;;;;;8.40;7.60;;;;;;;;;;5055602;28;20419;-83
2022/07/28 14:07:25;;;;;;;8.10;6.93;;;;;;;;;;5050409;28;20159;-82
2022/07/28 14:09:51;;;;;;;8.10;7.30;;;;;;;;;;5066247;28;20035;-82
2022/07/28 14:12:17;;;;;;;8.30;7.50;;;;;;;;;;5067426;28;20534;-81
2022/07/28 14:14:42;;;;;;;8.00;7.22;;;;;;;;;;5054979;28;20021;-82
2022/07/28 14:17:07;;;;;;;8.60;7.68;;;;;;;;;;5055309;28;20116;-81
2022/07/28 14:19:33;;;;;;;8.73;7.82;;;;;;;;;;5059066;28;20056;-82
2022/07/28 14:21:58;;;;;;;14.50;7.70;;;;;;;;;;5054812;28;20449;-86
2022/07/28 14:24:26;;;;;;;7.55;6.85;;;;;;;;;;5059360;28;20024;-84
2022/07/28 14:26:52;;;;;;;9.00;8.10;;;;;;;;;;5075797;28;20115;-83
2022/07/28 14:29:17;;;;;;;8.68;7.80;;;;;;;;;;5060678;28;20124;-82
2022/07/28 14:31:43;;;;;;;8.80;7.95;;;;;;;;;;5044695;28;20037;-82
2022/07/28 14:34:09;;;;;;;13.60;8.43;;;;;;;;;;5056130;28;20354;-85